createdAt,value
2018-04-18T00:01:10.736Z,84.90
2018-04-18T00:03:37.791Z,85.20
2018-04-18T00:06:04.068Z,85.20
2018-04-18T00:08:30.379Z,85.10
2018-04-18T00:10:56.666Z,85.20
2018-04-18T00:13:22.904Z,85.50
2018-04-18T00:15:49.237Z,85.50
2018-04-18T00:18:15.753Z,85.10
2018-04-18T00:20:43.921Z,83.90
2018-04-18T00:23:10.256Z,84.50
2018-04-18T00:25:36.510Z,84.30
2018-04-18T00:28:02.831Z,84.90
2018-04-18T00:30:29.164Z,83.40
2018-04-18T00:32:55.427Z,83.30
2018-04-18T00:35:21.802Z,84.10
2018-04-18T00:37:48.069Z,84.90
2018-04-18T00:40:15.125Z,85.60
2018-04-18T00:42:42.144Z,85.40
2018-04-18T00:45:08.431Z,85.40
2018-04-18T00:47:34.653Z,85.30
2018-04-18T00:50:01.660Z,86.20
2018-04-18T00:52:27.949Z,86.20
2018-04-18T00:54:54.254Z,87.10
2018-04-18T00:57:20.463Z,87.40
2018-04-18T00:59:46.730Z,86.60
2018-04-18T01:02:13.283Z,86.00
2018-04-18T01:04:39.715Z,86.00
2018-04-18T01:07:06.717Z,86.20
2018-04-18T01:09:33.990Z,86.10
2018-04-18T01:12:00.558Z,86.20
2018-04-18T01:14:27.661Z,86.60
2018-04-18T01:16:53.946Z,86.60
2018-04-18T01:19:20.213Z,86.60
2018-04-18T01:21:46.496Z,86.70
2018-04-18T01:24:12.983Z,86.70
2018-04-18T01:26:39.298Z,86.70
2018-04-18T01:29:05.663Z,86.80
2018-04-18T01:31:32.002Z,87.10
2018-04-18T01:33:59.394Z,87.60
2018-04-18T01:36:25.674Z,87.60
2018-04-18T01:38:51.934Z,87.60
2018-04-18T01:41:23.884Z,88.00
2018-04-18T01:43:50.135Z,88.10
2018-04-18T01:46:16.646Z,88.10
2018-04-18T01:48:43.876Z,87.40
2018-04-18T01:51:10.928Z,88.60
2018-04-18T01:53:37.199Z,88.60
2018-04-18T01:56:03.806Z,87.30
2018-04-18T01:58:30.089Z,85.90
2018-04-18T02:00:56.435Z,86.90
2018-04-18T02:03:22.655Z,85.40
2018-04-18T02:05:48.982Z,84.50
2018-04-18T02:08:15.275Z,84.60
2018-04-18T02:10:42.319Z,85.40
2018-04-18T02:13:08.631Z,85.30
2018-04-18T02:15:35.441Z,86.90
2018-04-18T02:18:02.481Z,85.70
2018-04-18T02:20:29.563Z,86.20
2018-04-18T02:22:56.577Z,86.60
2018-04-18T02:25:22.864Z,86.60
2018-04-18T02:27:50.087Z,86.60
2018-04-18T02:30:16.429Z,86.50
2018-04-18T02:32:48.442Z,86.40
2018-04-18T02:35:15.424Z,85.90
2018-04-18T02:37:41.717Z,85.90
2018-04-18T02:40:08.000Z,85.90
2018-04-18T02:42:34.313Z,85.50
2018-04-18T02:45:01.365Z,86.00
2018-04-18T02:47:27.747Z,85.80
2018-04-18T02:49:54.012Z,86.10
2018-04-18T02:52:20.439Z,86.20
2018-04-18T02:54:46.738Z,85.90
2018-04-18T02:57:13.223Z,86.20
2018-04-18T02:59:39.644Z,86.40
2018-04-18T03:02:06.671Z,86.30
2018-04-18T03:04:32.955Z,86.20
2018-04-18T03:06:59.930Z,85.80
2018-04-18T03:09:26.870Z,85.80
2018-04-18T03:11:53.872Z,85.80
2018-04-18T03:14:20.166Z,85.80
2018-04-18T03:16:46.418Z,86.00
2018-04-18T03:19:13.693Z,86.30
2018-04-18T03:21:40.694Z,86.30
2018-04-18T03:24:07.183Z,86.20
2018-04-18T03:26:33.488Z,86.20
2018-04-18T03:28:59.768Z,86.10
2018-04-18T03:31:26.826Z,86.10
2018-04-18T03:34:17.191Z,86.60
2018-04-18T03:36:43.823Z,86.60
2018-04-18T03:39:10.052Z,86.70
2018-04-18T03:41:36.389Z,87.30
2018-04-18T03:44:02.621Z,87.40
2018-04-18T03:46:28.897Z,87.20
2018-04-18T03:48:55.164Z,86.80
2018-04-18T03:51:21.623Z,86.70
2018-04-18T03:53:47.870Z,87.10
2018-04-18T03:56:14.505Z,85.60
2018-04-18T03:58:40.942Z,85.90
2018-04-18T04:01:07.194Z,86.80
2018-04-18T04:03:33.505Z,87.10
2018-04-18T04:06:17.170Z,86.90
2018-04-18T04:08:43.633Z,87.30
2018-04-18T04:11:09.998Z,87.30
2018-04-18T04:13:37.075Z,86.60
2018-04-18T04:16:04.139Z,86.60
2018-04-18T04:18:43.725Z,86.40
2018-04-18T04:24:29.785Z,85.60
2018-04-18T04:26:55.942Z,85.30
2018-04-18T04:29:22.222Z,84.70
2018-04-18T04:31:49.150Z,84.90
2018-04-18T04:34:15.390Z,84.80
2018-04-18T04:36:44.410Z,85.90
2018-04-18T04:39:10.611Z,85.80
2018-04-18T04:41:36.833Z,85.50
2018-04-18T04:44:03.115Z,85.60
2018-04-18T04:46:37.911Z,85.50
2018-04-18T04:49:04.158Z,86.20
2018-04-18T04:51:32.439Z,86.10
2018-04-18T04:53:58.609Z,85.60
2018-04-18T04:56:24.838Z,84.40
2018-04-18T04:58:51.001Z,85.00
2018-04-18T05:01:18.634Z,85.60
2018-04-18T05:03:45.552Z,85.80
2018-04-18T05:06:11.856Z,85.40
2018-04-18T05:08:38.323Z,85.60
2018-04-18T05:11:05.586Z,85.10
2018-04-18T05:13:31.930Z,85.20
2018-04-18T05:15:58.263Z,84.90
2018-04-18T05:18:28.438Z,84.50
2018-04-18T05:20:55.734Z,84.00
2018-04-18T05:23:22.782Z,83.80
2018-04-18T05:25:49.185Z,83.80
2018-04-18T05:28:17.184Z,84.00
2018-04-18T05:30:43.841Z,83.40
2018-04-18T05:33:10.274Z,83.10
2018-04-18T05:35:36.697Z,82.60
2018-04-18T05:38:03.117Z,82.00
2018-04-18T05:40:30.145Z,81.20
2018-04-18T05:42:56.398Z,81.30
2018-04-18T05:45:22.801Z,81.20
2018-04-18T05:47:49.887Z,81.60
2018-04-18T05:50:16.274Z,81.60
2018-04-18T05:52:42.596Z,81.50
2018-04-18T05:55:08.933Z,81.70
2018-04-18T05:57:36.094Z,81.60
2018-04-18T06:00:02.438Z,81.60
2018-04-18T06:02:28.854Z,80.50
2018-04-18T06:04:55.210Z,80.60
2018-04-18T06:07:21.681Z,80.30
2018-04-18T06:09:48.806Z,78.50
2018-04-18T06:12:15.469Z,78.40
2018-04-18T06:14:41.799Z,77.90
2018-04-18T06:17:08.107Z,77.40
2018-04-18T06:19:34.698Z,76.90
2018-04-18T06:22:01.023Z,76.40
2018-04-18T06:24:27.455Z,76.20
2018-04-18T06:26:53.846Z,75.80
2018-04-18T06:29:21.943Z,75.00
2018-04-18T06:31:49.034Z,67.40
2018-04-18T06:34:15.464Z,67.20
2018-04-18T06:36:42.662Z,60.50
2018-04-18T06:39:09.026Z,60.40
2018-04-18T06:41:35.330Z,58.60
2018-04-18T06:44:01.666Z,56.80
2018-04-18T06:46:28.822Z,55.10
2018-04-18T06:48:58.942Z,53.60
2018-04-18T06:51:26.311Z,52.70
2018-04-18T06:53:52.664Z,52.70
2018-04-18T06:56:19.781Z,51.00
2018-04-18T06:58:46.149Z,51.00
2018-04-18T07:01:12.411Z,50.40
2018-04-18T07:03:39.569Z,49.60
2018-04-18T07:06:05.905Z,49.60
2018-04-18T07:08:32.963Z,49.40
2018-04-18T07:10:59.363Z,49.30
2018-04-18T07:13:25.597Z,49.00
2018-04-18T07:15:51.825Z,49.00
2018-04-18T07:18:18.081Z,48.80
2018-04-18T07:20:46.125Z,48.10
2018-04-18T07:23:13.182Z,47.90
2018-04-18T07:25:40.330Z,47.90
2018-04-18T07:28:08.740Z,47.60
2018-04-18T07:30:35.042Z,48.00
2018-04-18T07:33:01.373Z,47.30
2018-04-18T07:35:27.680Z,47.90
2018-04-18T07:37:54.071Z,47.40
2018-04-18T07:40:21.140Z,47.50
2018-04-18T07:42:47.550Z,47.50
2018-04-18T07:45:14.245Z,47.50
2018-04-18T07:47:40.638Z,48.30
2018-04-18T07:50:07.172Z,47.90
2018-04-18T07:52:34.318Z,46.90
2018-04-18T07:55:00.993Z,46.90
2018-04-18T07:57:27.273Z,47.20
2018-04-18T07:59:53.603Z,47.10
2018-04-18T08:02:19.957Z,48.10
2018-04-18T08:04:46.339Z,48.90
2018-04-18T08:07:12.704Z,50.00
2018-04-18T08:09:40.882Z,50.00
2018-04-18T08:12:08.053Z,50.20
2018-04-18T08:14:35.196Z,49.80
2018-04-18T08:17:01.483Z,49.80
2018-04-18T08:19:27.825Z,48.60
2018-04-18T08:21:54.293Z,48.40
2018-04-18T08:24:20.624Z,48.10
2018-04-18T08:26:46.981Z,48.10
2018-04-18T08:29:13.361Z,48.00
2018-04-18T08:31:39.680Z,46.80
2018-04-18T08:34:08.173Z,46.70
2018-04-18T08:36:34.535Z,46.70
2018-04-18T08:39:00.831Z,46.70
2018-04-18T08:41:27.110Z,45.60
2018-04-18T08:43:53.450Z,46.10
2018-04-18T08:46:19.758Z,45.90
2018-04-18T08:48:46.247Z,45.90
2018-04-18T08:51:12.560Z,46.80
2018-04-18T08:53:38.950Z,45.80
2018-04-18T08:56:05.452Z,45.30
2018-04-18T08:58:31.792Z,44.70
2018-04-18T09:00:58.073Z,45.10
2018-04-18T09:03:24.374Z,44.50
2018-04-18T09:05:50.974Z,43.10
2018-04-18T09:08:17.486Z,43.50
2018-04-18T09:10:43.929Z,43.20
2018-04-18T09:13:10.294Z,42.70
2018-04-18T09:15:37.140Z,41.70
2018-04-18T09:18:03.477Z,39.50
2018-04-18T09:20:30.066Z,38.80
2018-04-18T09:22:57.206Z,40.50
2018-04-18T09:25:23.608Z,40.40
2018-04-18T09:27:50.023Z,37.50
2018-04-18T09:30:16.578Z,36.70
2018-04-18T09:32:44.111Z,37.40
2018-04-18T09:35:10.515Z,37.30
2018-04-18T09:37:36.999Z,37.50
2018-04-18T09:40:03.336Z,37.90
2018-04-18T09:42:30.371Z,38.40
2018-04-18T09:44:56.931Z,39.20
2018-04-18T09:47:23.216Z,38.40
2018-04-18T09:49:49.502Z,37.90
2018-04-18T09:52:15.886Z,37.60
2018-04-18T09:54:42.193Z,38.10
2018-04-18T09:57:08.653Z,38.50
2018-04-18T09:59:35.713Z,37.80
2018-04-18T10:02:08.134Z,37.80
2018-04-18T10:04:34.428Z,36.60
2018-04-18T10:07:07.579Z,36.10
2018-04-18T10:09:34.432Z,37.30
2018-04-18T10:12:00.926Z,35.50
2018-04-18T10:14:28.930Z,34.00
2018-04-18T10:16:56.403Z,34.40
2018-04-18T10:19:22.715Z,36.90
2018-04-18T10:21:49.085Z,33.70
2018-04-18T10:24:15.482Z,35.60
2018-04-18T10:26:42.650Z,34.00
2018-04-18T10:29:09.923Z,35.40
2018-04-18T10:31:36.599Z,35.40
2018-04-18T10:34:02.906Z,35.20
2018-04-18T10:36:30.245Z,35.10
2018-04-18T10:38:56.551Z,35.10
2018-04-18T10:41:23.036Z,34.80
2018-04-18T10:43:49.375Z,35.30
2018-04-18T10:46:15.666Z,35.30
2018-04-18T10:48:42.082Z,35.70
2018-04-18T10:51:09.463Z,36.50
2018-04-18T10:53:35.795Z,36.40
2018-04-18T10:56:02.086Z,35.90
2018-04-18T10:58:28.465Z,35.40
2018-04-18T11:00:54.767Z,35.20
2018-04-18T11:03:21.194Z,35.10
2018-04-18T11:05:48.929Z,33.90
2018-04-18T11:08:16.024Z,33.80
2018-04-18T11:10:42.355Z,34.00
2018-04-18T11:13:09.526Z,34.40
2018-04-18T11:15:35.882Z,34.30
2018-04-18T11:18:02.296Z,33.20
2018-04-18T11:20:30.412Z,33.50
2018-04-18T11:22:56.834Z,33.40
2018-04-18T11:25:24.006Z,32.90
2018-04-18T11:27:50.737Z,32.90
2018-04-18T11:30:17.088Z,34.30
2018-04-18T11:32:43.385Z,33.40
2018-04-18T11:35:10.449Z,33.10
2018-04-18T11:37:37.588Z,34.80
2018-04-18T11:40:04.667Z,34.80
2018-04-18T11:42:30.955Z,32.00
2018-04-18T11:44:57.279Z,31.60
2018-04-18T11:47:23.531Z,33.30
2018-04-18T11:49:49.802Z,33.40
2018-04-18T11:52:16.934Z,33.60
2018-04-18T11:54:43.259Z,33.60
2018-04-18T11:57:09.617Z,32.70
2018-04-18T11:59:35.886Z,31.60
2018-04-18T12:02:03.751Z,32.60
2018-04-18T12:04:31.007Z,32.60
2018-04-18T12:06:57.313Z,32.20
2018-04-18T12:09:23.691Z,31.40
2018-04-18T12:11:50.305Z,30.90
2018-04-18T12:14:16.654Z,31.60
2018-04-18T12:16:43.026Z,29.70
2018-04-18T12:19:09.410Z,28.90
2018-04-18T12:21:35.747Z,31.80
2018-04-18T12:24:02.117Z,31.60
2018-04-18T12:26:28.413Z,31.80
2018-04-18T12:28:54.844Z,31.50
2018-04-18T12:31:22.194Z,30.00
2018-04-18T12:33:48.548Z,31.40
2018-04-18T12:36:14.878Z,29.70
2018-04-18T12:38:41.348Z,30.00
2018-04-18T12:41:07.647Z,30.80
2018-04-18T12:43:34.125Z,27.70
2018-04-18T12:46:00.409Z,28.90
2018-04-18T12:48:27.563Z,29.40
2018-04-18T12:50:53.970Z,29.40
2018-04-18T12:53:20.542Z,29.60
2018-04-18T12:55:46.845Z,30.90
2018-04-18T12:58:13.299Z,30.10
2018-04-18T13:00:39.786Z,29.50
2018-04-18T13:03:06.094Z,29.60
2018-04-18T13:05:32.377Z,28.90
2018-04-18T13:07:59.378Z,29.50
2018-04-18T13:10:25.738Z,29.50
2018-04-18T13:12:52.078Z,29.30
2018-04-18T13:15:19.496Z,28.00
2018-04-18T13:17:46.610Z,28.10
2018-04-18T13:20:13.050Z,28.10
2018-04-18T13:22:39.552Z,27.30
2018-04-18T13:25:06.710Z,28.10
2018-04-18T13:27:33.698Z,28.10
2018-04-18T13:29:59.964Z,28.10
2018-04-18T13:32:27.423Z,28.00
2018-04-18T13:34:53.801Z,28.00
2018-04-18T13:37:20.285Z,26.60
2018-04-18T13:39:47.391Z,26.90
2018-04-18T13:42:16.637Z,26.90
2018-04-18T13:44:43.218Z,27.60
2018-04-18T13:47:09.808Z,26.40
2018-04-18T13:49:37.263Z,26.50
2018-04-18T13:52:04.790Z,23.60
2018-04-18T13:54:31.259Z,24.60
2018-04-18T13:56:58.295Z,22.60
2018-04-18T13:59:26.146Z,22.60
2018-04-18T14:01:53.564Z,24.00
2018-04-18T14:04:21.108Z,23.80
2018-04-18T14:06:48.264Z,22.60
2018-04-18T14:09:15.383Z,22.20
2018-04-18T14:11:42.399Z,24.70
2018-04-18T14:14:09.066Z,23.50
2018-04-18T14:16:37.050Z,24.00
2018-04-18T14:19:04.798Z,24.00
2018-04-18T14:21:31.236Z,24.20
2018-04-18T14:23:57.706Z,24.30
2018-04-18T14:26:24.816Z,23.90
2018-04-18T14:28:51.375Z,23.90
2018-04-18T14:31:17.700Z,24.60
2018-04-18T14:33:44.771Z,25.90
2018-04-18T14:36:11.134Z,25.70
2018-04-18T14:38:38.418Z,24.60
2018-04-18T14:41:05.393Z,24.70
2018-04-18T14:43:31.849Z,23.90
2018-04-18T14:45:58.339Z,24.20
2018-04-18T14:48:24.864Z,23.80
2018-04-18T14:50:51.324Z,24.80
2018-04-18T14:53:18.783Z,25.20
2018-04-18T14:55:45.376Z,25.20
2018-04-18T14:58:11.753Z,24.50
2018-04-18T15:00:38.873Z,24.20
2018-04-18T15:03:05.430Z,24.20
2018-04-18T15:05:33.716Z,24.20
2018-04-18T15:08:01.905Z,23.20
2018-04-18T15:10:28.324Z,24.80
2018-04-18T15:12:54.828Z,24.20
2018-04-18T15:15:23.263Z,22.90
2018-04-18T15:17:51.818Z,22.80
2018-04-18T15:20:18.340Z,24.30
2018-04-18T15:22:44.967Z,22.00
2018-04-18T15:25:11.430Z,22.60
2018-04-18T15:27:37.831Z,22.50
2018-04-18T15:30:04.319Z,22.70
2018-04-18T15:32:31.658Z,24.00
2018-04-18T15:34:58.038Z,23.00
2018-04-18T15:37:25.370Z,22.30
2018-04-18T15:39:52.580Z,22.30
2018-04-18T15:42:20.098Z,22.70
2018-04-18T15:44:46.821Z,22.60
2018-04-18T15:47:13.969Z,21.90
2018-04-18T15:49:40.379Z,22.00
2018-04-18T15:52:07.266Z,22.70
2018-04-18T15:54:34.358Z,22.20
2018-04-18T15:57:01.631Z,22.10
2018-04-18T15:59:28.207Z,22.00
2018-04-18T16:01:54.914Z,22.80
2018-04-18T16:04:22.757Z,23.20
2018-04-18T16:06:51.392Z,23.10
2018-04-18T16:09:23.315Z,21.10
2018-04-18T16:11:50.998Z,21.50
2018-04-18T16:14:17.648Z,23.00
2018-04-18T16:16:44.187Z,23.30
2018-04-18T16:19:10.585Z,23.10
2018-04-18T16:21:37.821Z,25.60
2018-04-18T16:24:04.349Z,25.60
2018-04-18T16:26:30.753Z,25.90
2018-04-18T16:28:58.012Z,25.00
2018-04-18T16:31:25.190Z,25.70
2018-04-18T16:33:52.284Z,24.40
2018-04-18T16:36:18.697Z,24.40
2018-04-18T16:38:45.013Z,24.50
2018-04-18T16:41:11.332Z,24.20
2018-04-18T16:43:38.677Z,24.70
2018-04-18T16:46:05.014Z,25.80
2018-04-18T16:48:31.938Z,25.90
2018-04-18T16:50:59.036Z,28.70
2018-04-18T16:53:26.216Z,28.60
2018-04-18T16:55:52.592Z,29.30
2018-04-18T16:58:18.974Z,29.90
2018-04-18T17:00:45.289Z,30.80
2018-04-18T17:03:14.618Z,31.60
2018-04-18T17:05:41.740Z,31.60
2018-04-18T17:08:08.227Z,31.50
2018-04-18T17:10:34.574Z,32.10
2018-04-18T17:13:01.764Z,33.30
2018-04-18T17:15:28.104Z,33.30
2018-04-18T17:17:54.345Z,34.00
2018-04-18T17:20:21.346Z,34.70
2018-04-18T17:22:48.014Z,35.30
2018-04-18T17:25:15.158Z,35.30
2018-04-18T17:27:42.343Z,35.30
2018-04-18T17:30:09.479Z,36.20
2018-04-18T17:32:36.596Z,36.70
2018-04-18T17:35:03.013Z,36.60
2018-04-18T17:37:29.411Z,36.60
2018-04-18T17:39:55.859Z,37.10
2018-04-18T17:42:22.139Z,37.50
2018-04-18T17:44:48.528Z,38.40
2018-04-18T17:47:14.798Z,38.40
2018-04-18T17:49:42.997Z,38.80
2018-04-18T17:52:09.474Z,39.60
2018-04-18T17:54:35.814Z,39.40
2018-04-18T17:57:02.866Z,39.70
2018-04-18T17:59:31.505Z,39.60
2018-04-18T18:01:59.001Z,40.40
2018-04-18T18:04:25.229Z,40.60
2018-04-18T18:06:51.485Z,41.10
2018-04-18T18:09:18.843Z,41.20
2018-04-18T18:11:45.222Z,41.70
2018-04-18T18:14:11.602Z,41.60
2018-04-18T18:16:38.199Z,41.80
2018-04-18T18:19:04.535Z,42.30
2018-04-18T18:21:31.044Z,42.40
2018-04-18T18:23:58.174Z,42.90
2018-04-18T18:26:24.607Z,42.90
2018-04-18T18:28:51.009Z,42.90
2018-04-18T18:31:17.884Z,43.10
2018-04-18T18:33:44.362Z,43.50
2018-04-18T18:36:10.976Z,43.90
2018-04-18T18:38:37.515Z,44.40
2018-04-18T18:41:03.801Z,44.70
2018-04-18T18:43:30.089Z,44.90
2018-04-18T18:45:59.524Z,45.40
2018-04-18T18:48:34.897Z,46.10
2018-04-18T18:56:57.812Z,47.40
2018-04-18T18:59:33.986Z,48.30
2018-04-18T19:02:43.043Z,48.30
2018-04-18T19:05:19.724Z,48.90
2018-04-18T19:07:52.108Z,50.00
2018-04-18T19:10:27.093Z,50.00
2018-04-18T19:13:08.452Z,51.00
2018-04-18T19:16:32.547Z,50.90
2018-04-18T19:19:06.537Z,50.90
2018-04-18T19:21:48.950Z,51.60
2018-04-18T19:24:34.213Z,51.60
2018-04-18T19:27:27.875Z,52.10
2018-04-18T19:38:13.781Z,54.00
2018-04-18T19:43:47.748Z,55.20
2018-04-18T19:49:10.376Z,56.40
2018-04-18T19:51:44.168Z,56.50
2018-04-18T19:56:59.928Z,57.80
2018-04-18T19:59:27.238Z,57.40
2018-04-18T20:01:58.144Z,58.40
2018-04-18T20:04:25.828Z,58.30
2018-04-18T20:06:56.313Z,58.80
2018-04-18T20:11:58.322Z,59.30
2018-04-18T20:14:28.297Z,59.60
2018-04-18T20:16:59.122Z,59.70
2018-04-18T20:19:32.865Z,59.80
2018-04-18T20:22:07.660Z,60.20
2018-04-18T20:24:38.142Z,60.80
2018-04-18T20:27:18.610Z,61.00
2018-04-18T20:29:59.646Z,61.00
2018-04-18T20:35:52.257Z,62.40
2018-04-18T20:38:40.016Z,62.30
2018-04-18T20:44:00.279Z,63.50
2018-04-18T20:46:33.895Z,64.10
2018-04-18T20:49:12.126Z,65.10
2018-04-18T20:51:48.362Z,65.10
2018-04-18T20:54:23.493Z,65.30
2018-04-18T20:56:55.548Z,65.60
2018-04-18T20:59:26.283Z,65.60
2018-04-18T21:05:02.915Z,66.60
2018-04-18T21:07:49.110Z,67.10
2018-04-18T21:11:33.199Z,67.90
2018-04-18T21:14:18.744Z,68.10
2018-04-18T21:16:50.495Z,68.50
2018-04-18T21:19:29.934Z,68.60
2018-04-18T21:22:06.424Z,69.00
2018-04-18T21:24:40.005Z,69.00
2018-04-18T21:27:18.818Z,69.30
2018-04-18T21:30:02.208Z,69.70
2018-04-18T21:32:35.377Z,69.70
2018-04-18T21:35:10.328Z,69.70
2018-04-18T21:37:38.456Z,69.60
2018-04-18T21:40:09.611Z,69.90
2018-04-18T21:45:35.231Z,70.70
2018-04-18T21:48:05.257Z,70.90
2018-04-18T21:50:34.647Z,71.40
2018-04-18T21:53:11.028Z,71.40
2018-04-18T21:55:52.085Z,71.00
2018-04-18T21:58:23.611Z,71.00
2018-04-18T22:06:26.446Z,71.60
2018-04-18T22:08:53.606Z,71.70
2018-04-18T22:11:29.120Z,72.00
2018-04-18T22:13:58.863Z,72.00
2018-04-18T22:16:25.298Z,72.30
2018-04-18T22:18:56.251Z,72.50
2018-04-18T22:21:28.075Z,72.70
2018-04-18T22:24:03.516Z,72.80
2018-04-18T22:26:37.049Z,72.80
2018-04-18T22:29:10.995Z,72.90
2018-04-18T22:31:41.155Z,73.00
2018-04-18T22:34:14.933Z,73.80
2018-04-18T22:36:59.091Z,73.80
2018-04-18T22:39:28.729Z,73.10
2018-04-18T22:41:55.782Z,73.00
2018-04-18T22:44:27.982Z,73.10
2018-04-18T22:47:10.542Z,73.50
2018-04-18T22:49:49.993Z,73.80
2018-04-18T22:52:19.047Z,74.40
2018-04-18T22:57:30.889Z,74.40
2018-04-18T23:00:03.812Z,74.60
2018-04-18T23:02:37.242Z,74.70
2018-04-18T23:05:05.083Z,74.90
2018-04-18T23:07:38.192Z,74.90
2018-04-18T23:10:10.544Z,74.50
2018-04-18T23:12:40.865Z,74.60
2018-04-18T23:15:12.194Z,74.50
2018-04-18T23:17:42.463Z,74.60
2018-04-18T23:22:52.003Z,76.40
2018-04-18T23:25:21.089Z,76.40
2018-04-18T23:28:04.687Z,76.60
2018-04-18T23:30:39.580Z,76.60
2018-04-18T23:38:53.245Z,77.20
